Time;durP1;ratioP1;P1;durP2;ratioP2;P2;SDS_P1;SDS_P2;PMS_P1;PMS_P2;Temp;Humidity;BMP_temperature;BMP_pressure;BME280_temperature;BME280_humidity;BME280_pressure;Samples;Min_cycle;Max_cycle;Signal;HPM_P1;HPM_P2
2023/03/05 00:00:53;;;;;;;1.35;1.20;;;17.60;1.00;;;;;;5052136;28;20052;-37
2023/03/05 00:03:20;;;;;;;1.10;0.38;;;17.60;1.00;;;;;;5051471;28;20471;-37
2023/03/05 00:05:47;;;;;;;1.48;0.30;;;17.60;1.00;;;;;;5052074;28;20049;-37
2023/03/05 00:08:13;;;;;;;1.67;0.30;;;17.60;1.00;;;;;;5051918;28;20045;-37
2023/03/05 00:10:40;;;;;;;2.03;0.50;;;17.60;1.00;;;;;;5051960;28;20053;-37
2023/03/05 00:13:07;;;;;;;2.15;0.45;;;17.50;1.00;;;;;;5051197;28;20037;-37
2023/03/05 00:15:40;;;;;;;2.15;0.35;;;17.50;1.00;;;;;;5051901;28;20441;-37
2023/03/05 00:18:07;;;;;;;2.67;0.32;;;17.50;1.00;;;;;;5051939;28;20045;-37
2023/03/05 00:20:34;;;;;;;2.17;0.47;;;17.50;1.00;;;;;;5051667;28;20125;-37
2023/03/05 00:23:01;;;;;;;1.48;0.40;;;17.40;1.00;;;;;;5051164;28;20049;-37
2023/03/05 00:25:28;;;;;;;2.42;0.50;;;17.40;1.00;;;;;;5073875;22;20098;-36
2023/03/05 00:27:55;;;;;;;1.80;0.50;;;17.40;1.00;;;;;;5071501;28;20036;-36
2023/03/05 00:30:21;;;;;;;3.53;0.32;;;17.40;1.00;;;;;;5070139;28;20041;-36
2023/03/05 00:32:48;;;;;;;1.02;0.20;;;17.30;1.00;;;;;;5069567;28;20048;-36
2023/03/05 00:35:15;;;;;;;1.05;0.30;;;17.40;1.00;;;;;;5076631;28;20045;-36
2023/03/05 00:37:42;;;;;;;0.88;0.20;;;17.30;1.00;;;;;;5077067;28;20484;-36
2023/03/05 00:40:09;;;;;;;1.20;0.60;;;17.30;1.00;;;;;;5078406;28;20492;-36
2023/03/05 00:42:37;;;;;;;0.90;0.32;;;17.30;1.00;;;;;;5077898;28;20044;-36
2023/03/05 00:45:07;;;;;;;1.17;0.50;;;17.30;1.00;;;;;;5076795;28;20054;-36
2023/03/05 00:47:34;;;;;;;2.20;0.68;;;17.20;1.00;;;;;;5078505;28;20435;-35
2023/03/05 00:50:02;;;;;;;1.42;0.30;;;17.20;1.00;;;;;;5078849;28;20071;-36
2023/03/05 00:52:29;;;;;;;0.93;0.20;;;17.20;1.00;;;;;;5076556;28;20098;-36
2023/03/05 00:54:56;;;;;;;1.25;0.73;;;17.10;1.00;;;;;;5077757;28;20044;-36
2023/03/05 00:57:24;;;;;;;1.13;0.32;;;17.20;1.00;;;;;;5078058;28;20060;-37
2023/03/05 00:59:50;;;;;;;1.42;0.57;;;17.10;1.00;;;;;;5077866;28;20098;-37
2023/03/05 01:02:17;;;;;;;1.92;0.20;;;17.10;1.00;;;;;;5076490;28;20044;-37
2023/03/05 01:04:46;;;;;;;0.95;0.20;;;17.10;1.00;;;;;;5077772;28;20107;-37
2023/03/05 01:07:13;;;;;;;0.77;0.47;;;17.00;1.00;;;;;;5076863;28;20040;-37
2023/03/05 01:09:39;;;;;;;0.65;0.30;;;17.10;1.00;;;;;;5076914;28;20491;-36
2023/03/05 01:12:07;;;;;;;0.90;0.28;;;17.00;1.00;;;;;;5076619;28;20044;-36
2023/03/05 01:14:34;;;;;;;3.60;0.30;;;17.00;1.00;;;;;;5077391;28;20415;-37
2023/03/05 01:17:01;;;;;;;1.02;0.40;;;16.90;1.00;;;;;;5077846;28;20044;-36
2023/03/05 01:19:28;;;;;;;0.50;0.13;;;16.90;1.00;;;;;;5078121;28;20086;-36
2023/03/05 01:21:55;;;;;;;1.58;0.32;;;16.90;1.00;;;;;;5076876;28;20044;-36
2023/03/05 01:24:22;;;;;;;3.55;0.50;;;16.90;1.00;;;;;;5077053;28;20119;-36
2023/03/05 01:26:49;;;;;;;1.45;0.35;;;16.90;1.00;;;;;;5076463;28;20051;-36
2023/03/05 01:29:16;;;;;;;1.58;0.43;;;16.90;1.00;;;;;;5076644;28;20491;-36
2023/03/05 01:31:43;;;;;;;1.55;0.50;;;16.90;1.00;;;;;;5077865;28;20076;-36
2023/03/05 01:34:09;;;;;;;1.60;0.47;;;16.90;1.00;;;;;;5076926;28;20048;-36
2023/03/05 01:36:36;;;;;;;1.00;0.40;;;16.80;1.00;;;;;;5077851;28;20036;-36
2023/03/05 01:39:03;;;;;;;2.40;0.60;;;16.80;1.00;;;;;;5076501;28;20131;-36
2023/03/05 01:41:30;;;;;;;1.25;0.30;;;16.80;1.00;;;;;;5076524;28;20044;-35
2023/03/05 01:43:57;;;;;;;1.27;0.30;;;16.80;1.00;;;;;;5076940;28;20029;-36
2023/03/05 01:46:29;;;;;;;0.85;0.20;;;16.80;1.00;;;;;;5072903;28;20044;-35
2023/03/05 01:49:10;;;;;;;1.33;0.40;;;16.70;1.00;;;;;;5074650;28;20539;-36
2023/03/05 01:51:44;;;;;;;1.70;0.57;;;16.70;1.00;;;;;;5073260;28;20102;-36
2023/03/05 01:54:15;;;;;;;1.80;0.57;;;16.70;1.00;;;;;;5072421;28;20101;-36
2023/03/05 01:56:44;;;;;;;0.82;0.25;;;16.70;1.00;;;;;;5074421;28;20068;-36
2023/03/05 01:59:12;;;;;;;1.25;0.32;;;16.70;1.00;;;;;;5073140;28;20057;-36
2023/03/05 02:01:46;;;;;;;0.55;0.20;;;16.60;1.00;;;;;;5073170;28;20098;-36
2023/03/05 02:04:16;;;;;;;0.75;0.30;;;16.60;1.00;;;;;;5073434;28;20459;-36
2023/03/05 02:06:44;;;;;;;2.60;0.40;;;16.60;1.00;;;;;;5073097;28;20135;-36
2023/03/05 02:09:11;;;;;;;1.52;0.40;;;16.60;1.00;;;;;;5074036;28;20556;-36
2023/03/05 02:11:38;;;;;;;1.50;0.70;;;16.60;1.00;;;;;;5072902;28;20048;-35
2023/03/05 02:14:07;;;;;;;1.88;0.40;;;16.60;1.00;;;;;;5073318;28;20064;-36
2023/03/05 02:16:37;;;;;;;1.05;0.28;;;16.60;1.00;;;;;;5072667;28;20102;-36
2023/03/05 02:19:07;;;;;;;3.35;0.40;;;16.50;1.00;;;;;;5072707;28;20055;-36
2023/03/05 02:21:43;;;;;;;0.90;0.22;;;16.50;1.00;;;;;;5072591;28;20101;-36
2023/03/05 02:24:16;;;;;;;1.17;0.40;;;16.50;1.00;;;;;;5071761;28;20044;-37
2023/03/05 02:26:45;;;;;;;1.17;0.30;;;16.50;1.00;;;;;;5073917;28;20417;-36
2023/03/05 02:29:17;;;;;;;0.63;0.22;;;16.40;1.00;;;;;;5073740;28;20054;-36
2023/03/05 02:31:45;;;;;;;0.60;0.33;;;16.40;1.00;;;;;;5072606;28;20529;-36
2023/03/05 02:34:11;;;;;;;0.40;0.30;;;16.40;1.00;;;;;;5071614;28;20281;-36
2023/03/05 02:36:38;;;;;;;1.00;0.50;;;16.40;1.00;;;;;;5055996;28;20550;-36
2023/03/05 02:39:06;;;;;;;0.80;0.32;;;16.40;1.00;;;;;;5073562;28;20408;-36
2023/03/05 02:41:32;;;;;;;0.73;0.30;;;16.40;1.00;;;;;;5057340;28;20072;-36
2023/03/05 02:43:59;;;;;;;0.50;0.10;;;16.40;1.00;;;;;;5072378;28;20041;-36
2023/03/05 02:46:26;;;;;;;2.30;0.32;;;16.40;1.00;;;;;;5072084;28;20052;-36
2023/03/05 02:48:53;;;;;;;1.08;0.20;;;16.30;1.00;;;;;;5069565;28;20496;-36
2023/03/05 02:51:20;;;;;;;1.85;0.30;;;16.30;1.00;;;;;;5072012;28;20044;-37
2023/03/05 02:53:47;;;;;;;1.02;0.60;;;16.30;1.00;;;;;;5071224;28;20588;-36
2023/03/05 02:56:15;;;;;;;0.90;0.13;;;16.30;1.00;;;;;;5071620;28;20077;-35
2023/03/05 02:58:41;;;;;;;1.23;0.28;;;16.30;1.00;;;;;;5073320;28;20040;-36
2023/03/05 03:01:09;;;;;;;0.73;0.20;;;16.20;1.00;;;;;;5071921;28;20041;-35
2023/03/05 03:03:37;;;;;;;1.42;0.10;;;16.20;1.00;;;;;;5072412;28;20483;-36
2023/03/05 03:06:08;;;;;;;0.90;0.20;;;16.20;1.00;;;;;;5073161;28;20041;-36
2023/03/05 03:08:34;;;;;;;1.38;0.38;;;16.20;1.00;;;;;;5073053;28;20146;-36
2023/03/05 03:11:11;;;;;;;1.38;0.20;;;16.10;1.00;;;;;;5072874;28;20122;-36
2023/03/05 03:13:38;;;;;;;1.17;0.38;;;16.10;1.00;;;;;;5072088;28;20139;-36
2023/03/05 03:16:08;;;;;;;1.40;0.35;;;16.10;1.00;;;;;;5072970;28;20461;-36
2023/03/05 03:18:35;;;;;;;1.88;0.47;;;16.00;1.00;;;;;;5072889;28;20446;-37
2023/03/05 03:21:02;;;;;;;2.25;0.38;;;16.00;1.00;;;;;;5072792;28;20033;-37
2023/03/05 03:23:30;;;;;;;1.70;0.32;;;16.00;1.00;;;;;;5071832;28;20494;-37
2023/03/05 03:25:58;;;;;;;0.40;0.10;;;16.00;1.00;;;;;;5072524;28;20076;-36
2023/03/05 03:28:25;;;;;;;1.25;0.30;;;16.00;1.00;;;;;;5072645;28;20052;-36
2023/03/05 03:30:52;;;;;;;2.78;0.30;;;16.00;1.00;;;;;;5072632;28;20045;-35
2023/03/05 03:33:18;;;;;;;3.00;0.40;;;16.00;1.00;;;;;;5071883;28;20040;-35
2023/03/05 03:35:45;;;;;;;0.57;0.17;;;15.90;1.00;;;;;;5072280;28;20037;-36
2023/03/05 03:38:12;;;;;;;2.00;0.85;;;15.90;1.00;;;;;;5071394;28;20052;-36
2023/03/05 03:40:40;;;;;;;0.90;0.10;;;15.90;1.00;;;;;;5072660;28;20044;-36
2023/03/05 03:43:07;;;;;;;0.90;0.10;;;15.90;1.00;;;;;;5071740;28;20098;-35
2023/03/05 03:45:34;;;;;;;0.50;0.10;;;15.90;1.00;;;;;;5072260;28;20044;-36
2023/03/05 03:48:01;;;;;;;0.57;0.10;;;15.90;1.00;;;;;;5072379;28;20451;-36
2023/03/05 03:50:28;;;;;;;1.25;0.10;;;15.90;1.00;;;;;;5072122;28;20070;-36
2023/03/05 03:52:54;;;;;;;3.80;0.30;;;15.80;1.00;;;;;;5071539;28;20561;-36
2023/03/05 03:55:21;;;;;;;2.72;0.30;;;15.80;1.00;;;;;;5072092;28;20060;-36
2023/03/05 03:57:48;;;;;;;0.60;0.20;;;15.80;1.00;;;;;;5072224;28;20052;-36
2023/03/05 04:00:15;;;;;;;0.50;0.30;;;15.80;1.00;;;;;;5072055;28;20040;-36
2023/03/05 04:02:42;;;;;;;1.45;0.32;;;15.80;1.00;;;;;;5071375;28;20544;-36
2023/03/05 04:05:09;;;;;;;6.03;0.60;;;15.80;1.00;;;;;;5071849;28;20410;-35
2023/03/05 04:07:36;;;;;;;3.08;0.30;;;15.70;1.00;;;;;;5071864;28;20046;-36
2023/03/05 04:10:04;;;;;;;0.60;0.10;;;15.70;1.00;;;;;;5071689;28;20048;-36
2023/03/05 04:12:31;;;;;;;0.93;0.30;;;15.70;1.00;;;;;;5070392;28;20048;-36
2023/03/05 04:14:58;;;;;;;0.20;0.08;;;15.70;1.00;;;;;;5071412;28;20098;-35
2023/03/05 04:17:24;;;;;;;2.13;0.20;;;15.70;1.00;;;;;;5071845;28;20041;-36
2023/03/05 04:19:51;;;;;;;1.65;0.43;;;15.70;1.00;;;;;;5071836;28;20056;-36
2023/03/05 04:22:18;;;;;;;1.33;0.20;;;15.70;1.00;;;;;;5071507;28;20120;-35
2023/03/05 04:24:45;;;;;;;0.65;0.20;;;15.60;1.00;;;;;;5064700;28;20045;-35
2023/03/05 04:27:11;;;;;;;0.35;0.10;;;15.60;1.00;;;;;;5071778;28;20107;-35
2023/03/05 04:29:38;;;;;;;1.23;0.20;;;15.60;1.00;;;;;;5071916;28;20111;-36
2023/03/05 04:32:06;;;;;;;0.88;0.35;;;15.60;1.00;;;;;;5071645;28;20045;-36
2023/03/05 04:34:34;;;;;;;1.13;0.20;;;15.60;1.00;;;;;;5070922;28;20102;-37
2023/03/05 04:37:00;;;;;;;0.50;0.22;;;15.60;1.00;;;;;;5071586;28;20032;-37
2023/03/05 04:39:27;;;;;;;0.60;0.35;;;15.60;1.00;;;;;;5071963;28;20408;-36
2023/03/05 04:41:54;;;;;;;1.15;0.30;;;15.60;1.00;;;;;;5071650;28;20047;-36
2023/03/05 04:44:22;;;;;;;1.90;0.60;;;15.60;1.00;;;;;;5070815;28;20051;-36
2023/03/05 04:46:49;;;;;;;0.75;0.20;;;15.50;1.00;;;;;;5071505;28;20071;-35
2023/03/05 04:49:16;;;;;;;1.73;0.30;;;15.50;1.00;;;;;;5071673;28;20086;-35
2023/03/05 04:51:42;;;;;;;1.27;0.22;;;15.50;1.00;;;;;;5071515;28;20052;-36
2023/03/05 04:54:09;;;;;;;0.73;0.22;;;15.50;1.00;;;;;;5070866;28;20138;-35
2023/03/05 04:56:36;;;;;;;3.45;0.30;;;15.50;1.00;;;;;;5071507;28;20124;-35
2023/03/05 04:59:03;;;;;;;0.65;0.10;;;15.50;1.00;;;;;;5071519;28;20064;-35
2023/03/05 05:01:30;;;;;;;2.65;0.22;;;15.50;1.00;;;;;;5071435;28;20094;-36
2023/03/05 05:03:56;;;;;;;1.63;0.30;;;15.40;1.00;;;;;;5071011;28;20510;-36
2023/03/05 05:06:23;;;;;;;1.73;0.30;;;15.40;1.00;;;;;;5071375;28;20059;-37
2023/03/05 05:08:50;;;;;;;1.08;0.20;;;15.40;1.00;;;;;;5071760;28;20404;-36
2023/03/05 05:11:17;;;;;;;2.50;0.50;;;15.40;1.00;;;;;;5071443;28;20098;-36
2023/03/05 05:13:43;;;;;;;2.38;0.30;;;15.40;1.00;;;;;;5070583;28;20048;-36
2023/03/05 05:16:10;;;;;;;0.40;0.20;;;15.40;1.00;;;;;;5071137;28;20044;-36
2023/03/05 05:18:37;;;;;;;0.82;0.10;;;15.30;1.00;;;;;;5071567;28;20055;-36
2023/03/05 05:21:09;;;;;;;1.15;0.20;;;15.30;1.00;;;;;;5072814;28;20130;-36
2023/03/05 05:23:36;;;;;;;0.50;0.15;;;15.30;1.00;;;;;;5074343;28;20037;-35
2023/03/05 05:26:05;;;;;;;0.50;0.10;;;15.30;1.00;;;;;;5074756;28;20071;-36
2023/03/05 05:28:34;;;;;;;0.68;0.13;;;15.30;1.00;;;;;;5074906;28;20058;-36
2023/03/05 05:31:06;;;;;;;1.45;0.35;;;15.30;1.00;;;;;;5074937;28;20496;-36
2023/03/05 05:33:32;;;;;;;2.53;0.30;;;15.30;1.00;;;;;;5074139;28;20049;-36
2023/03/05 05:36:05;;;;;;;0.55;0.20;;;15.30;1.00;;;;;;5074631;28;20419;-35
2023/03/05 05:38:32;;;;;;;0.20;0.10;;;15.30;1.00;;;;;;5074799;28;20041;-35
2023/03/05 05:41:07;;;;;;;0.73;0.20;;;15.20;1.00;;;;;;5074641;28;20105;-36
2023/03/05 05:43:34;;;;;;;1.45;0.45;;;15.20;1.00;;;;;;5073923;28;20033;-37
2023/03/05 05:46:11;;;;;;;0.85;0.20;;;15.20;1.00;;;;;;5074608;28;20111;-36
2023/03/05 05:48:39;;;;;;;0.43;0.10;;;15.20;1.00;;;;;;5074654;28;20040;-36
2023/03/05 05:51:11;;;;;;;0.50;0.20;;;15.20;1.00;;;;;;5074550;28;20048;-36
2023/03/05 05:53:38;;;;;;;1.10;0.35;;;15.20;1.00;;;;;;5073770;28;20045;-36
2023/03/05 05:56:06;;;;;;;1.27;0.75;;;15.20;1.00;;;;;;5074370;28;20040;-36
2023/03/05 05:58:33;;;;;;;1.38;0.10;;;15.20;1.00;;;;;;5074290;28;20060;-36
2023/03/05 06:01:00;;;;;;;0.90;0.15;;;15.20;1.00;;;;;;5074538;28;20506;-36
2023/03/05 06:03:27;;;;;;;2.00;0.30;;;15.10;1.00;;;;;;5073692;28;20115;-36
2023/03/05 06:05:54;;;;;;;0.77;0.15;;;15.10;1.00;;;;;;5074062;28;20090;-36
2023/03/05 06:08:21;;;;;;;0.90;0.10;;;15.10;1.00;;;;;;5074226;28;20047;-35
2023/03/05 06:10:56;;;;;;;1.55;0.15;;;15.10;1.00;;;;;;5074180;28;20041;-36
2023/03/05 06:13:22;;;;;;;0.30;0.10;;;15.10;1.00;;;;;;5073657;28;20051;-35
2023/03/05 06:15:57;;;;;;;0.47;0.17;;;15.10;1.00;;;;;;5074139;28;20044;-35
2023/03/05 06:18:24;;;;;;;1.52;0.30;;;15.10;1.00;;;;;;5073729;28;20109;-35
2023/03/05 06:21:00;;;;;;;1.92;0.22;;;15.10;1.00;;;;;;5073319;28;20115;-35
2023/03/05 06:23:26;;;;;;;0.38;0.20;;;15.00;1.00;;;;;;5061339;28;20039;-36
2023/03/05 06:25:54;;;;;;;2.83;0.95;;;15.00;1.00;;;;;;5055980;22;20216;-37
2023/03/05 06:28:21;;;;;;;1.80;0.25;;;15.00;1.00;;;;;;5042633;28;20053;-33
2023/03/05 06:30:47;;;;;;;0.73;0.20;;;15.00;1.00;;;;;;5052173;28;20472;-33
2023/03/05 06:33:14;;;;;;;0.20;0.08;;;15.00;1.00;;;;;;5034830;28;20086;-36
2023/03/05 06:35:41;;;;;;;0.15;0.05;;;15.00;1.00;;;;;;5035961;28;20485;-32
2023/03/05 06:38:08;;;;;;;0.40;0.10;;;15.00;1.00;;;;;;5053419;28;20037;-36
2023/03/05 06:40:38;;;;;;;0.55;0.00;;;15.00;1.00;;;;;;5053697;28;20072;-34
2023/03/05 06:43:05;;;;;;;0.77;0.45;;;15.00;1.00;;;;;;5052637;28;20052;-34
2023/03/05 06:45:32;;;;;;;0.70;0.10;;;14.90;1.00;;;;;;5053386;28;20041;-35
2023/03/05 06:47:58;;;;;;;0.40;0.10;;;14.90;1.00;;;;;;5053284;28;20120;-36
2023/03/05 06:50:25;;;;;;;1.92;0.30;;;14.90;1.00;;;;;;5053502;28;20163;-37
2023/03/05 06:52:52;;;;;;;0.85;0.20;;;14.90;1.00;;;;;;5052471;28;20055;-34
2023/03/05 06:55:19;;;;;;;1.98;0.20;;;14.90;1.00;;;;;;5035362;28;20055;-35
2023/03/05 06:57:46;;;;;;;0.63;0.20;;;14.90;1.00;;;;;;5051625;28;20174;-32
2023/03/05 07:00:13;;;;;;;0.30;0.13;;;14.90;1.00;;;;;;5053295;28;20079;-35
2023/03/05 07:02:40;;;;;;;1.27;0.22;;;14.90;1.00;;;;;;5052228;28;20048;-34
2023/03/05 07:05:07;;;;;;;0.70;0.30;;;14.90;1.00;;;;;;5053118;28;20051;-32
2023/03/05 07:07:34;;;;;;;1.30;0.30;;;14.90;1.00;;;;;;5052915;28;20120;-39
2023/03/05 07:10:02;;;;;;;2.17;0.70;;;14.80;1.00;;;;;;5053097;28;20052;-33
2023/03/05 07:12:29;;;;;;;0.95;0.25;;;14.80;1.00;;;;;;5052236;28;20059;-35
2023/03/05 07:14:56;;;;;;;0.57;0.10;;;14.80;1.00;;;;;;5051417;28;20037;-36
2023/03/05 07:17:22;;;;;;;0.25;0.05;;;14.80;1.00;;;;;;5051720;28;20032;-33
2023/03/05 07:19:49;;;;;;;0.57;0.10;;;14.80;1.00;;;;;;5052268;28;20114;-36
2023/03/05 07:22:16;;;;;;;0.50;0.10;;;14.80;1.00;;;;;;5051988;28;20044;-35
2023/03/05 07:24:43;;;;;;;0.47;0.10;;;14.80;1.00;;;;;;5052225;28;20086;-34
2023/03/05 07:27:09;;;;;;;0.47;0.20;;;14.80;1.00;;;;;;5050716;28;20041;-36
2023/03/05 07:29:36;;;;;;;3.38;0.52;;;14.80;1.00;;;;;;5044789;28;21534;-36
2023/03/05 07:32:03;;;;;;;2.45;0.40;;;14.80;1.00;;;;;;5049423;28;20381;-37
2023/03/05 07:34:30;;;;;;;2.53;0.30;;;14.80;1.00;;;;;;5051142;28;20068;-33
2023/03/05 07:36:57;;;;;;;4.95;0.32;;;14.70;1.00;;;;;;5051770;28;20033;-35
2023/03/05 07:39:24;;;;;;;3.80;0.90;;;14.70;1.00;;;;;;5054351;28;20037;-34
2023/03/05 07:41:51;;;;;;;9.52;0.30;;;14.70;1.00;;;;;;5056797;28;20095;-33
2023/03/05 07:44:26;;;;;;;2.42;1.25;;;14.70;1.00;;;;;;5052639;28;20052;-35
2023/03/05 07:46:52;;;;;;;1.63;0.70;;;14.70;1.00;;;;;;5072221;28;20037;-34
2023/03/05 07:49:19;;;;;;;1.58;0.35;;;14.70;1.00;;;;;;5068944;28;20048;-35
2023/03/05 07:51:46;;;;;;;0.68;0.30;;;14.70;1.00;;;;;;5072175;28;20047;-33
2023/03/05 07:54:13;;;;;;;1.35;0.10;;;14.70;1.00;;;;;;5062480;28;20083;-34
2023/03/05 07:56:40;;;;;;;1.45;0.30;;;14.70;1.00;;;;;;5052211;28;20124;-35
2023/03/05 07:59:09;;;;;;;3.15;0.30;;;14.70;1.00;;;;;;5051868;28;20040;-31
2023/03/05 08:01:36;;;;;;;2.05;0.30;;;14.70;1.00;;;;;;5051088;28;20041;-32
2023/03/05 08:04:05;;;;;;;0.95;0.20;;;14.70;1.00;;;;;;5049340;28;20043;-37
2023/03/05 08:06:32;;;;;;;1.25;0.10;;;14.70;1.00;;;;;;5049802;28;20041;-32
2023/03/05 08:08:59;;;;;;;0.70;0.20;;;14.60;1.00;;;;;;5051041;28;20091;-33
2023/03/05 08:11:27;;;;;;;1.13;0.20;;;14.60;1.00;;;;;;5051919;28;20051;-36
2023/03/05 08:13:55;;;;;;;0.75;0.30;;;14.60;1.00;;;;;;5051045;28;20037;-36
2023/03/05 08:16:24;;;;;;;0.30;0.20;;;14.60;1.00;;;;;;5050421;28;20104;-37
2023/03/05 08:18:56;;;;;;;7.10;0.35;;;14.60;1.00;;;;;;5051361;28;20124;-37
2023/03/05 08:21:28;;;;;;;2.17;0.47;;;14.60;1.00;;;;;;5051651;28;20112;-37
2023/03/05 08:23:56;;;;;;;0.70;0.22;;;14.60;1.00;;;;;;5038394;28;20037;-35
2023/03/05 08:26:25;;;;;;;0.57;0.20;;;14.60;1.00;;;;;;5042629;28;20037;-34
2023/03/05 08:28:52;;;;;;;0.43;0.13;;;14.70;1.00;;;;;;5049386;28;20043;-36
2023/03/05 08:31:21;;;;;;;0.65;0.20;;;14.60;1.00;;;;;;5051107;28;20029;-34
2023/03/05 08:33:51;;;;;;;0.60;0.20;;;14.60;1.00;;;;;;5050693;28;20079;-35
2023/03/05 08:36:18;;;;;;;2.75;0.10;;;14.60;1.00;;;;;;5050592;28;20536;-38
2023/03/05 08:38:47;;;;;;;0.80;0.20;;;14.60;1.00;;;;;;5050130;28;20449;-33
2023/03/05 08:41:16;;;;;;;3.58;0.35;;;14.60;1.00;;;;;;5051129;28;20047;-33
2023/03/05 08:43:43;;;;;;;0.77;0.20;;;14.60;1.00;;;;;;5050182;28;20399;-36
2023/03/05 08:46:12;;;;;;;0.80;0.20;;;14.60;1.00;;;;;;5050787;28;20036;-32
2023/03/05 08:48:39;;;;;;;3.42;0.38;;;14.60;1.00;;;;;;5049620;28;20049;-36
2023/03/05 08:51:11;;;;;;;2.40;0.28;;;14.60;1.00;;;;;;5049063;28;20479;-32
2023/03/05 08:53:39;;;;;;;3.65;0.38;;;14.60;1.00;;;;;;5048965;28;20048;-34
2023/03/05 08:56:06;;;;;;;1.15;0.20;;;14.60;1.00;;;;;;5054255;28;20103;-35
2023/03/05 08:58:33;;;;;;;2.08;0.50;;;14.60;1.00;;;;;;5055119;28;20041;-34
2023/03/05 09:01:00;;;;;;;1.63;0.20;;;14.60;1.00;;;;;;5055681;28;20045;-35
2023/03/05 09:03:27;;;;;;;1.70;0.50;;;14.60;1.00;;;;;;5054732;28;20044;-33
2023/03/05 09:05:58;;;;;;;1.17;0.20;;;14.60;1.00;;;;;;5055383;28;20051;-34
2023/03/05 09:08:25;;;;;;;4.75;0.30;;;14.60;1.00;;;;;;5055285;28;20041;-35
2023/03/05 09:10:52;;;;;;;0.98;0.20;;;14.60;1.00;;;;;;5055371;28;20457;-39
2023/03/05 09:13:19;;;;;;;2.10;0.20;;;14.60;1.00;;;;;;5054229;28;20053;-37
2023/03/05 09:15:53;;;;;;;3.20;0.22;;;14.70;1.00;;;;;;5055114;28;20045;-32
2023/03/05 09:18:20;;;;;;;6.82;1.08;;;14.60;1.00;;;;;;5054991;28;20041;-34
2023/03/05 09:20:47;;;;;;;1.30;0.13;;;14.60;1.00;;;;;;5055169;28;20095;-39
2023/03/05 09:23:13;;;;;;;1.27;0.15;;;14.60;1.00;;;;;;5054695;28;20037;-32
2023/03/05 09:25:42;;;;;;;2.38;0.43;;;14.60;1.00;;;;;;5054655;28;20037;-34
2023/03/05 09:28:09;;;;;;;2.05;0.35;;;14.60;1.00;;;;;;5053509;28;20152;-32
2023/03/05 09:30:35;;;;;;;1.98;0.43;;;14.70;1.00;;;;;;5055032;28;20072;-32
2023/03/05 09:33:03;;;;;;;0.85;0.20;;;14.60;1.00;;;;;;5053944;28;20037;-32
2023/03/05 09:35:33;;;;;;;1.33;0.30;;;14.60;1.00;;;;;;5054846;28;20501;-35
2023/03/05 09:38:00;;;;;;;3.80;0.32;;;14.60;1.00;;;;;;5054593;28;20516;-33
2023/03/05 09:40:35;;;;;;;0.68;0.13;;;14.60;1.00;;;;;;5054537;28;20041;-32
2023/03/05 09:43:20;;;;;;;1.92;0.32;;;14.60;1.00;;;;;;5049997;28;20061;-34
2023/03/05 09:46:12;;;;;;;1.73;0.32;;;14.60;1.00;;;;;;5053916;28;20060;-35
2023/03/05 09:49:09;;;;;;;1.00;0.28;;;14.60;1.00;;;;;;5052247;28;20127;-31
2023/03/05 09:51:40;;;;;;;2.50;0.30;;;14.60;1.00;;;;;;5042748;28;20432;-37
2023/03/05 09:54:18;;;;;;;1.48;0.43;;;14.60;1.00;;;;;;5050424;28;20485;-33
2023/03/05 09:56:55;;;;;;;1.05;0.30;;;14.60;1.00;;;;;;5054322;28;20045;-38
2023/03/05 09:59:59;;;;;;;1.27;0.10;;;14.60;1.00;;;;;;5054249;28;20041;-32
2023/03/05 10:02:46;;;;;;;0.75;0.20;;;14.60;1.00;;;;;;5029276;28;20049;-32
2023/03/05 10:05:21;;;;;;;1.17;0.20;;;14.60;1.00;;;;;;5052632;28;20040;-34
2023/03/05 10:07:56;;;;;;;3.33;0.30;;;14.60;1.00;;;;;;5052997;28;20052;-34
2023/03/05 10:10:42;;;;;;;0.98;0.15;;;14.60;1.00;;;;;;5034223;28;20056;-34
2023/03/05 10:13:19;;;;;;;3.45;0.50;;;14.60;1.00;;;;;;5033445;28;20517;-32
2023/03/05 10:16:04;;;;;;;1.38;0.20;;;14.60;1.00;;;;;;5035172;28;20049;-35
2023/03/05 10:19:01;;;;;;;1.92;0.32;;;14.60;1.00;;;;;;5050726;28;20138;-34
2023/03/05 10:21:42;;;;;;;2.13;0.30;;;14.60;1.00;;;;;;5046343;28;20037;-36
2023/03/05 10:24:26;;;;;;;3.40;0.77;;;14.60;1.00;;;;;;5053066;28;20404;-33
2023/03/05 10:27:03;;;;;;;2.05;0.55;;;14.60;1.00;;;;;;5053198;28;20158;-37
2023/03/05 10:29:59;;;;;;;3.15;0.60;;;14.60;1.00;;;;;;5047027;28;20512;-36
2023/03/05 10:32:43;;;;;;;2.75;0.80;;;14.60;1.00;;;;;;5033295;28;20143;-34
2023/03/05 10:35:35;;;;;;;3.25;0.40;;;14.60;1.00;;;;;;5051794;28;20050;-34
2023/03/05 10:38:27;;;;;;;1.42;0.70;;;14.60;1.00;;;;;;5048536;28;20041;-34
2023/03/05 10:40:54;;;;;;;7.03;0.73;;;14.60;1.00;;;;;;5050223;28;20028;-33
2023/03/05 10:43:43;;;;;;;1.50;0.60;;;14.60;1.00;;;;;;5052520;28;20037;-31
2023/03/05 10:46:19;;;;;;;1.90;0.57;;;14.60;1.00;;;;;;5051548;28;20029;-32
2023/03/05 10:48:54;;;;;;;4.40;0.40;;;14.60;1.00;;;;;;5051157;28;20037;-33
2023/03/05 10:51:37;;;;;;;3.33;0.70;;;14.60;1.00;;;;;;5051150;28;20045;-37
2023/03/05 10:54:10;;;;;;;3.10;0.43;;;14.60;1.00;;;;;;5051147;28;20508;-32
2023/03/05 10:56:37;;;;;;;2.08;0.50;;;14.60;1.00;;;;;;5043709;28;20041;-34
2023/03/05 10:59:04;;;;;;;3.17;0.90;;;14.60;1.00;;;;;;5052865;28;20061;-34
2023/03/05 11:01:33;;;;;;;3.83;1.08;;;14.60;1.00;;;;;;5053054;28;20037;-33
2023/03/05 11:04:24;;;;;;;3.78;0.47;;;14.60;1.00;;;;;;5051721;28;20123;-33
2023/03/05 11:06:51;;;;;;;1.45;0.60;;;14.60;1.00;;;;;;5047263;28;20125;-31
2023/03/05 11:09:27;;;;;;;4.00;1.50;;;14.60;1.00;;;;;;5052853;28;20049;-37
2023/03/05 11:12:09;;;;;;;2.72;0.68;;;14.60;1.00;;;;;;5052642;28;20041;-32
2023/03/05 11:14:39;;;;;;;3.88;0.47;;;14.60;1.00;;;;;;5048833;28;20049;-37
2023/03/05 11:17:37;;;;;;;2.53;0.55;;;14.60;1.00;;;;;;5052683;28;20559;-34
2023/03/05 11:20:25;;;;;;;1.83;0.40;;;14.60;1.00;;;;;;5052745;28;20041;-34
2023/03/05 11:23:24;;;;;;;2.20;0.60;;;14.60;1.00;;;;;;5051950;28;20480;-34
2023/03/05 11:26:20;;;;;;;1.02;0.30;;;14.60;1.00;;;;;;5048129;28;20045;-32
2023/03/05 11:28:53;;;;;;;2.58;0.57;;;14.60;1.00;;;;;;5051407;28;20057;-35
2023/03/05 11:31:23;;;;;;;1.88;0.77;;;14.70;1.00;;;;;;5052664;28;20049;-34
2023/03/05 11:33:57;;;;;;;1.73;0.60;;;14.70;1.00;;;;;;5051869;28;20411;-33
2023/03/05 11:36:32;;;;;;;1.48;0.22;;;14.70;1.00;;;;;;5049987;28;20045;-32
2023/03/05 11:39:05;;;;;;;3.30;0.47;;;14.70;1.00;;;;;;5049497;28;20045;-33
2023/03/05 11:41:38;;;;;;;2.67;0.30;;;14.70;1.00;;;;;;5052437;28;20044;-34
2023/03/05 11:44:14;;;;;;;3.03;0.40;;;14.70;1.00;;;;;;5051506;28;20048;-32
2023/03/05 11:46:46;;;;;;;2.28;0.30;;;14.70;1.00;;;;;;5052336;28;20040;-36
2023/03/05 11:49:18;;;;;;;2.45;0.50;;;14.70;1.00;;;;;;5052357;28;20412;-36
2023/03/05 11:51:54;;;;;;;1.47;0.50;;;14.60;1.00;;;;;;5052261;28;20390;-36
2023/03/05 11:54:30;;;;;;;2.45;0.30;;;14.70;1.00;;;;;;5051419;28;20278;-34
2023/03/05 11:56:59;;;;;;;1.35;0.22;;;14.60;1.00;;;;;;5052040;28;20041;-32
2023/03/05 11:59:33;;;;;;;1.48;0.30;;;14.70;1.00;;;;;;5052074;28;20045;-35
2023/03/05 12:02:00;;;;;;;1.83;0.30;;;14.70;1.00;;;;;;5051887;28;20040;-32
2023/03/05 12:04:30;;;;;;;3.53;0.55;;;14.70;1.00;;;;;;5051320;28;20041;-33
2023/03/05 12:07:00;;;;;;;1.60;0.28;;;14.70;1.00;;;;;;5050819;28;20512;-35
2023/03/05 12:09:40;;;;;;;3.75;0.43;;;14.70;1.00;;;;;;5040294;28;20559;-33
2023/03/05 12:12:35;;;;;;;2.20;0.63;;;14.70;1.00;;;;;;5038536;28;20455;-33
2023/03/05 12:15:01;;;;;;;1.25;0.30;;;14.70;1.00;;;;;;5047666;28;20045;-37
2023/03/05 12:18:06;;;;;;;4.30;0.50;;;14.70;1.00;;;;;;5051472;28;20040;-34
2023/03/05 12:20:55;;;;;;;1.13;0.10;;;14.60;1.00;;;;;;5044514;28;20048;-38
2023/03/05 12:23:22;;;;;;;5.35;0.32;;;14.60;1.00;;;;;;5050996;28;20566;-38
2023/03/05 12:25:52;;;;;;;1.85;0.10;;;14.60;1.00;;;;;;5069011;22;20049;-38
2023/03/05 12:28:30;;;;;;;5.97;1.48;;;14.70;1.00;;;;;;5065491;28;20037;-39
2023/03/05 12:31:00;;;;;;;0.47;0.20;;;14.70;1.00;;;;;;5061838;28;20048;-39
2023/03/05 12:33:34;;;;;;;3.05;0.73;;;14.70;1.00;;;;;;5061183;28;20430;-39
2023/03/05 12:36:19;;;;;;;0.60;0.15;;;14.70;1.00;;;;;;5044523;28;20045;-39
2023/03/05 12:38:54;;;;;;;1.42;0.35;;;14.70;1.00;;;;;;5062624;28;20033;-39
2023/03/05 12:41:21;;;;;;;2.03;0.45;;;14.70;1.00;;;;;;5065345;28;20048;-38
2023/03/05 12:44:06;;;;;;;0.60;0.17;;;14.70;1.00;;;;;;5059477;28;20068;-39
2023/03/05 12:46:38;;;;;;;1.00;0.63;;;14.70;1.00;;;;;;5068567;28;20044;-38
2023/03/05 12:49:16;;;;;;;2.63;0.45;;;14.70;1.00;;;;;;5071401;28;20036;-39
2023/03/05 12:51:45;;;;;;;2.25;0.30;;;14.70;1.00;;;;;;5071554;28;20055;-38
2023/03/05 12:54:33;;;;;;;4.60;0.30;;;14.70;1.00;;;;;;5070584;28;20105;-39
2023/03/05 12:57:20;;;;;;;3.42;0.20;;;14.70;1.00;;;;;;5071459;28;20577;-39
2023/03/05 13:00:32;;;;;;;2.65;0.43;;;14.70;1.00;;;;;;5066049;28;20041;-38
2023/03/05 13:03:03;;;;;;;9.55;0.70;;;14.70;1.00;;;;;;5037483;28;20524;-38
2023/03/05 13:05:52;;;;;;;3.90;0.38;;;14.70;1.00;;;;;;5071548;28;20041;-38
2023/03/05 13:08:26;;;;;;;1.60;0.65;;;14.70;1.00;;;;;;5071280;28;20455;-39
2023/03/05 13:10:56;;;;;;;2.53;0.40;;;14.70;1.00;;;;;;5068835;28;20110;-39
2023/03/05 13:13:25;;;;;;;11.02;0.50;;;14.70;1.00;;;;;;5067107;28;20050;-39
2023/03/05 13:15:52;;;;;;;1.55;0.25;;;14.70;1.00;;;;;;5071100;28;20048;-39